Accueil
METAR-TAF:

METAR-TAF

Aéroports :

Aérodrome de Wallis-Hihifo

Wallis, France

latitude: 13-14S, longitude: 176-10W, altitude: 23 m

Observation

Le bulletin a été fait il y a 32 minutes, à 00:30 UTC
Vent 12 kt de sud-est, variant entre est et sud
Température 29°C
Humidité 66%
Pression 1011 hPa
Visibilité 10 km ou plus
Quelques nuages à une hauteur de 3300 ft
Nuages épars à une hauteur de 4000 ft

METAR: NLWW 230030Z 13012KT 090V170 9999 FEW033 SCT040 29/22 Q1011 NOSIG

Heure: 13:02 (01:02 UTC)

Prévision

Le bulletin a été fait il y a 2 heures et 2 minutes, à 23:00 UTC
Prévision valable du 23 à 00 UTC au 23 à 24 UTC
Vent 14 kt de sud-est
Visibilité 10 km ou plus
Quelques nuages à une hauteur de 3500 ft

TAF: NLWW 222300Z 2300/2324 14014KT 9999 FEW035

Observations et prévisions météorologiques de plus de 4000 aéroports (messages METAR et TAF).

Les stations disponibles sont représentées par des disques jaunes et rouges sur la carte.

Passer la souris dessus pour voir le nom de la station.

Cliquer dessus pour voir les observations et prévisions météorologiques.

Pour changer de carte: cliquez sur les boutons verts avec une croix noire pour zoomer, sur le bouton vert avec un tiret pour effectuer un zoom arrière, ou sur les flèches vertes pour les cartes adjacentes.


METAR-TAF: